sensor_id;sensor_type;location;lat;lon;timestamp;P1;durP1;ratioP1;P2;durP2;ratioP2
8435;SDS011;4255;48.730;9.156;2023-01-24T00:02:21;33.17;;;18.50;;
8435;SDS011;4255;48.730;9.156;2023-01-24T00:04:46;37.83;;;19.13;;
8435;SDS011;4255;48.730;9.156;2023-01-24T00:07:12;30.83;;;17.20;;
8435;SDS011;4255;48.730;9.156;2023-01-24T00:09:38;32.67;;;17.70;;
8435;SDS011;4255;48.730;9.156;2023-01-24T00:12:04;30.23;;;16.80;;
8435;SDS011;4255;48.730;9.156;2023-01-24T00:14:29;31.70;;;17.20;;
8435;SDS011;4255;48.730;9.156;2023-01-24T00:16:55;26.87;;;15.83;;
8435;SDS011;4255;48.730;9.156;2023-01-24T00:19:20;25.20;;;14.93;;
8435;SDS011;4255;48.730;9.156;2023-01-24T00:21:46;27.57;;;15.93;;
8435;SDS011;4255;48.730;9.156;2023-01-24T00:24:12;25.53;;;15.50;;
8435;SDS011;4255;48.730;9.156;2023-01-24T00:26:37;28.03;;;15.33;;
8435;SDS011;4255;48.730;9.156;2023-01-24T00:29:03;24.10;;;16.10;;
8435;SDS011;4255;48.730;9.156;2023-01-24T00:31:29;24.77;;;14.55;;
8435;SDS011;4255;48.730;9.156;2023-01-24T00:33:55;20.67;;;12.20;;
8435;SDS011;4255;48.730;9.156;2023-01-24T00:36:21;26.80;;;17.30;;
8435;SDS011;4255;48.730;9.156;2023-01-24T00:38:46;27.30;;;16.07;;
8435;SDS011;4255;48.730;9.156;2023-01-24T00:41:12;22.73;;;13.40;;
8435;SDS011;4255;48.730;9.156;2023-01-24T00:43:37;22.47;;;14.43;;
8435;SDS011;4255;48.730;9.156;2023-01-24T00:46:06;21.77;;;13.97;;
8435;SDS011;4255;48.730;9.156;2023-01-24T00:48:34;26.17;;;15.05;;
8435;SDS011;4255;48.730;9.156;2023-01-24T00:51:00;27.83;;;16.77;;
8435;SDS011;4255;48.730;9.156;2023-01-24T00:53:26;25.47;;;15.50;;
8435;SDS011;4255;48.730;9.156;2023-01-24T00:55:51;26.77;;;15.67;;
8435;SDS011;4255;48.730;9.156;2023-01-24T00:58:19;25.90;;;14.23;;
8435;SDS011;4255;48.730;9.156;2023-01-24T01:00:45;19.00;;;12.30;;
8435;SDS011;4255;48.730;9.156;2023-01-24T01:03:12;22.60;;;13.97;;
8435;SDS011;4255;48.730;9.156;2023-01-24T01:05:40;23.45;;;13.40;;
8435;SDS011;4255;48.730;9.156;2023-01-24T01:08:05;26.17;;;15.38;;
8435;SDS011;4255;48.730;9.156;2023-01-24T01:10:32;30.27;;;15.85;;
8435;SDS011;4255;48.730;9.156;2023-01-24T01:12:57;27.73;;;14.93;;
8435;SDS011;4255;48.730;9.156;2023-01-24T01:15:23;58.43;;;26.73;;
8435;SDS011;4255;48.730;9.156;2023-01-24T01:17:49;25.17;;;15.10;;
8435;SDS011;4255;48.730;9.156;2023-01-24T01:20:14;25.50;;;14.30;;
8435;SDS011;4255;48.730;9.156;2023-01-24T01:22:40;30.53;;;16.83;;
8435;SDS011;4255;48.730;9.156;2023-01-24T01:25:06;27.93;;;14.30;;
8435;SDS011;4255;48.730;9.156;2023-01-24T01:27:32;25.27;;;14.77;;
8435;SDS011;4255;48.730;9.156;2023-01-24T01:29:57;27.43;;;16.97;;
8435;SDS011;4255;48.730;9.156;2023-01-24T01:32:23;24.93;;;15.80;;
8435;SDS011;4255;48.730;9.156;2023-01-24T01:34:48;26.00;;;15.43;;
8435;SDS011;4255;48.730;9.156;2023-01-24T01:37:14;24.40;;;15.30;;
8435;SDS011;4255;48.730;9.156;2023-01-24T01:39:39;28.43;;;16.97;;
8435;SDS011;4255;48.730;9.156;2023-01-24T01:42:05;30.87;;;15.73;;
8435;SDS011;4255;48.730;9.156;2023-01-24T01:44:31;29.17;;;16.80;;
8435;SDS011;4255;48.730;9.156;2023-01-24T01:47:03;26.70;;;16.27;;
8435;SDS011;4255;48.730;9.156;2023-01-24T01:49:32;24.33;;;14.45;;
8435;SDS011;4255;48.730;9.156;2023-01-24T01:51:59;31.23;;;15.65;;
8435;SDS011;4255;48.730;9.156;2023-01-24T01:54:33;26.00;;;15.75;;
8435;SDS011;4255;48.730;9.156;2023-01-24T01:57:03;31.70;;;16.45;;
8435;SDS011;4255;48.730;9.156;2023-01-24T01:59:38;26.85;;;14.82;;
8435;SDS011;4255;48.730;9.156;2023-01-24T02:02:06;27.33;;;17.13;;
8435;SDS011;4255;48.730;9.156;2023-01-24T02:04:35;26.85;;;15.13;;
8435;SDS011;4255;48.730;9.156;2023-01-24T02:07:22;28.90;;;17.60;;
8435;SDS011;4255;48.730;9.156;2023-01-24T02:09:53;27.23;;;16.15;;
8435;SDS011;4255;48.730;9.156;2023-01-24T02:12:21;28.08;;;15.20;;
8435;SDS011;4255;48.730;9.156;2023-01-24T02:15:09;27.52;;;16.58;;
8435;SDS011;4255;48.730;9.156;2023-01-24T02:17:56;23.88;;;16.33;;
8435;SDS011;4255;48.730;9.156;2023-01-24T02:23:07;23.65;;;12.75;;
8435;SDS011;4255;48.730;9.156;2023-01-24T02:28:05;31.58;;;16.73;;
8435;SDS011;4255;48.730;9.156;2023-01-24T02:30:32;31.83;;;15.30;;
8435;SDS011;4255;48.730;9.156;2023-01-24T02:32:58;28.23;;;16.25;;
8435;SDS011;4255;48.730;9.156;2023-01-24T02:35:28;25.53;;;16.13;;
8435;SDS011;4255;48.730;9.156;2023-01-24T02:37:56;28.90;;;17.63;;
8435;SDS011;4255;48.730;9.156;2023-01-24T02:40:24;28.80;;;15.63;;
8435;SDS011;4255;48.730;9.156;2023-01-24T02:42:52;30.80;;;17.90;;
8435;SDS011;4255;48.730;9.156;2023-01-24T02:47:52;27.25;;;16.50;;
8435;SDS011;4255;48.730;9.156;2023-01-24T02:50:20;26.80;;;16.05;;
8435;SDS011;4255;48.730;9.156;2023-01-24T02:52:47;26.13;;;13.80;;
8435;SDS011;4255;48.730;9.156;2023-01-24T02:55:32;29.27;;;16.25;;
8435;SDS011;4255;48.730;9.156;2023-01-24T02:57:59;26.80;;;15.98;;
8435;SDS011;4255;48.730;9.156;2023-01-24T03:00:40;27.30;;;16.27;;
8435;SDS011;4255;48.730;9.156;2023-01-24T03:03:07;28.63;;;16.05;;
8435;SDS011;4255;48.730;9.156;2023-01-24T03:05:34;31.17;;;14.73;;
8435;SDS011;4255;48.730;9.156;2023-01-24T03:11:41;25.65;;;16.58;;
8435;SDS011;4255;48.730;9.156;2023-01-24T03:14:06;18.97;;;11.03;;
8435;SDS011;4255;48.730;9.156;2023-01-24T03:16:50;27.55;;;15.73;;
8435;SDS011;4255;48.730;9.156;2023-01-24T03:19:35;28.50;;;15.48;;
8435;SDS011;4255;48.730;9.156;2023-01-24T03:22:19;29.77;;;16.20;;
8435;SDS011;4255;48.730;9.156;2023-01-24T03:25:03;28.67;;;16.30;;
8435;SDS011;4255;48.730;9.156;2023-01-24T03:27:48;25.02;;;13.60;;
8435;SDS011;4255;48.730;9.156;2023-01-24T03:30:32;32.67;;;17.75;;
8435;SDS011;4255;48.730;9.156;2023-01-24T03:33:16;25.02;;;14.93;;
8435;SDS011;4255;48.730;9.156;2023-01-24T03:36:00;28.27;;;16.83;;
8435;SDS011;4255;48.730;9.156;2023-01-24T03:38:26;30.77;;;16.90;;
8435;SDS011;4255;48.730;9.156;2023-01-24T03:41:11;22.40;;;15.27;;
8435;SDS011;4255;48.730;9.156;2023-01-24T03:43:36;27.03;;;17.20;;
8435;SDS011;4255;48.730;9.156;2023-01-24T03:46:02;25.47;;;14.50;;
8435;SDS011;4255;48.730;9.156;2023-01-24T03:48:28;27.73;;;15.67;;
8435;SDS011;4255;48.730;9.156;2023-01-24T03:51:01;27.88;;;16.70;;
8435;SDS011;4255;48.730;9.156;2023-01-24T03:53:46;27.00;;;14.88;;
8435;SDS011;4255;48.730;9.156;2023-01-24T03:56:12;28.00;;;17.20;;
8435;SDS011;4255;48.730;9.156;2023-01-24T03:58:37;29.30;;;16.90;;
8435;SDS011;4255;48.730;9.156;2023-01-24T04:01:03;30.58;;;16.25;;
8435;SDS011;4255;48.730;9.156;2023-01-24T04:03:29;33.57;;;18.10;;
8435;SDS011;4255;48.730;9.156;2023-01-24T04:05:57;27.85;;;16.08;;
8435;SDS011;4255;48.730;9.156;2023-01-24T04:08:23;28.03;;;17.00;;
8435;SDS011;4255;48.730;9.156;2023-01-24T04:10:49;26.63;;;16.00;;
8435;SDS011;4255;48.730;9.156;2023-01-24T04:13:14;27.33;;;14.40;;
8435;SDS011;4255;48.730;9.156;2023-01-24T04:15:40;23.80;;;14.57;;
8435;SDS011;4255;48.730;9.156;2023-01-24T04:18:06;29.10;;;16.37;;
8435;SDS011;4255;48.730;9.156;2023-01-24T04:20:35;34.53;;;16.67;;
8435;SDS011;4255;48.730;9.156;2023-01-24T04:23:02;26.33;;;15.43;;
8435;SDS011;4255;48.730;9.156;2023-01-24T04:25:29;30.20;;;16.05;;
8435;SDS011;4255;48.730;9.156;2023-01-24T04:27:55;29.80;;;16.07;;
8435;SDS011;4255;48.730;9.156;2023-01-24T04:30:21;24.47;;;13.13;;
8435;SDS011;4255;48.730;9.156;2023-01-24T04:32:46;25.10;;;15.33;;
8435;SDS011;4255;48.730;9.156;2023-01-24T04:35:30;32.73;;;18.07;;
8435;SDS011;4255;48.730;9.156;2023-01-24T04:38:00;30.05;;;15.32;;
8435;SDS011;4255;48.730;9.156;2023-01-24T04:40:26;27.15;;;15.45;;
8435;SDS011;4255;48.730;9.156;2023-01-24T04:42:54;32.67;;;17.65;;
8435;SDS011;4255;48.730;9.156;2023-01-24T04:45:21;28.73;;;16.73;;
8435;SDS011;4255;48.730;9.156;2023-01-24T04:47:47;31.40;;;17.90;;
8435;SDS011;4255;48.730;9.156;2023-01-24T04:50:12;30.93;;;17.60;;
8435;SDS011;4255;48.730;9.156;2023-01-24T04:52:38;27.77;;;15.43;;
8435;SDS011;4255;48.730;9.156;2023-01-24T04:55:03;27.27;;;15.80;;
8435;SDS011;4255;48.730;9.156;2023-01-24T04:57:30;26.42;;;16.65;;
8435;SDS011;4255;48.730;9.156;2023-01-24T04:59:55;25.00;;;13.20;;
8435;SDS011;4255;48.730;9.156;2023-01-24T05:02:21;28.70;;;16.53;;
8435;SDS011;4255;48.730;9.156;2023-01-24T05:04:47;28.30;;;17.17;;
8435;SDS011;4255;48.730;9.156;2023-01-24T05:07:12;31.73;;;17.63;;
8435;SDS011;4255;48.730;9.156;2023-01-24T05:09:38;32.15;;;16.90;;
8435;SDS011;4255;48.730;9.156;2023-01-24T05:12:04;25.77;;;17.17;;
8435;SDS011;4255;48.730;9.156;2023-01-24T05:14:30;28.23;;;16.70;;
8435;SDS011;4255;48.730;9.156;2023-01-24T05:16:55;30.17;;;19.03;;
8435;SDS011;4255;48.730;9.156;2023-01-24T05:19:21;33.07;;;17.60;;
8435;SDS011;4255;48.730;9.156;2023-01-24T05:21:47;30.73;;;15.68;;
8435;SDS011;4255;48.730;9.156;2023-01-24T05:24:12;27.20;;;15.73;;
8435;SDS011;4255;48.730;9.156;2023-01-24T05:26:38;31.63;;;15.83;;
8435;SDS011;4255;48.730;9.156;2023-01-24T05:29:03;31.37;;;17.50;;
8435;SDS011;4255;48.730;9.156;2023-01-24T05:31:29;22.10;;;14.03;;
8435;SDS011;4255;48.730;9.156;2023-01-24T05:33:55;30.67;;;17.50;;
8435;SDS011;4255;48.730;9.156;2023-01-24T05:36:21;30.10;;;18.03;;
8435;SDS011;4255;48.730;9.156;2023-01-24T05:38:48;32.55;;;18.38;;
8435;SDS011;4255;48.730;9.156;2023-01-24T05:41:15;32.20;;;17.70;;
8435;SDS011;4255;48.730;9.156;2023-01-24T05:43:42;30.95;;;17.42;;
8435;SDS011;4255;48.730;9.156;2023-01-24T05:46:09;31.55;;;18.05;;
8435;SDS011;4255;48.730;9.156;2023-01-24T05:48:38;33.33;;;17.83;;
8435;SDS011;4255;48.730;9.156;2023-01-24T05:51:07;29.60;;;16.70;;
8435;SDS011;4255;48.730;9.156;2023-01-24T05:53:35;40.20;;;19.33;;
8435;SDS011;4255;48.730;9.156;2023-01-24T05:56:03;37.65;;;17.13;;
8435;SDS011;4255;48.730;9.156;2023-01-24T05:58:35;29.50;;;18.00;;
8435;SDS011;4255;48.730;9.156;2023-01-24T06:01:05;25.52;;;14.68;;
8435;SDS011;4255;48.730;9.156;2023-01-24T06:03:50;32.42;;;17.00;;
8435;SDS011;4255;48.730;9.156;2023-01-24T06:06:17;28.63;;;17.80;;
8435;SDS011;4255;48.730;9.156;2023-01-24T06:08:45;31.08;;;18.23;;
8435;SDS011;4255;48.730;9.156;2023-01-24T06:11:14;29.27;;;16.80;;
8435;SDS011;4255;48.730;9.156;2023-01-24T06:13:42;29.55;;;17.10;;
8435;SDS011;4255;48.730;9.156;2023-01-24T06:16:11;31.50;;;18.60;;
8435;SDS011;4255;48.730;9.156;2023-01-24T06:18:45;34.80;;;17.05;;
8435;SDS011;4255;48.730;9.156;2023-01-24T06:21:45;32.17;;;18.60;;
8435;SDS011;4255;48.730;9.156;2023-01-24T06:24:03;30.20;;;16.30;;
8435;SDS011;4255;48.730;9.156;2023-01-24T06:26:30;40.17;;;21.02;;
8435;SDS011;4255;48.730;9.156;2023-01-24T06:28:56;34.70;;;19.33;;
8435;SDS011;4255;48.730;9.156;2023-01-24T06:31:26;32.10;;;18.80;;
8435;SDS011;4255;48.730;9.156;2023-01-24T06:34:16;36.38;;;19.80;;
8435;SDS011;4255;48.730;9.156;2023-01-24T06:39:57;30.42;;;17.70;;
8435;SDS011;4255;48.730;9.156;2023-01-24T06:42:23;38.38;;;18.90;;
8435;SDS011;4255;48.730;9.156;2023-01-24T06:44:49;35.70;;;19.35;;
8435;SDS011;4255;48.730;9.156;2023-01-24T06:47:15;33.50;;;18.50;;
8435;SDS011;4255;48.730;9.156;2023-01-24T06:49:41;39.92;;;20.25;;
8435;SDS011;4255;48.730;9.156;2023-01-24T06:52:08;33.10;;;18.25;;
8435;SDS011;4255;48.730;9.156;2023-01-24T06:54:34;26.83;;;15.83;;
8435;SDS011;4255;48.730;9.156;2023-01-24T06:57:00;33.42;;;19.63;;
8435;SDS011;4255;48.730;9.156;2023-01-24T06:59:27;28.42;;;16.95;;
8435;SDS011;4255;48.730;9.156;2023-01-24T07:01:52;35.67;;;16.33;;
8435;SDS011;4255;48.730;9.156;2023-01-24T07:04:18;36.30;;;19.47;;
8435;SDS011;4255;48.730;9.156;2023-01-24T07:06:44;35.63;;;16.80;;
8435;SDS011;4255;48.730;9.156;2023-01-24T07:09:09;27.30;;;13.77;;
8435;SDS011;4255;48.730;9.156;2023-01-24T07:11:36;33.27;;;16.73;;
8435;SDS011;4255;48.730;9.156;2023-01-24T07:14:02;25.48;;;14.85;;
8435;SDS011;4255;48.730;9.156;2023-01-24T07:16:27;34.53;;;17.03;;
8435;SDS011;4255;48.730;9.156;2023-01-24T07:18:53;30.73;;;17.90;;
8435;SDS011;4255;48.730;9.156;2023-01-24T07:21:19;37.08;;;20.15;;
8435;SDS011;4255;48.730;9.156;2023-01-24T07:23:46;32.17;;;18.60;;
8435;SDS011;4255;48.730;9.156;2023-01-24T07:26:13;31.83;;;18.40;;
8435;SDS011;4255;48.730;9.156;2023-01-24T07:28:39;37.72;;;19.25;;
8435;SDS011;4255;48.730;9.156;2023-01-24T07:31:06;29.75;;;18.77;;
8435;SDS011;4255;48.730;9.156;2023-01-24T07:33:32;32.15;;;17.70;;
8435;SDS011;4255;48.730;9.156;2023-01-24T07:35:58;30.55;;;18.77;;
8435;SDS011;4255;48.730;9.156;2023-01-24T07:38:24;32.17;;;18.00;;
8435;SDS011;4255;48.730;9.156;2023-01-24T07:40:49;33.83;;;16.67;;
8435;SDS011;4255;48.730;9.156;2023-01-24T07:43:15;37.40;;;19.97;;
8435;SDS011;4255;48.730;9.156;2023-01-24T07:45:44;38.00;;;20.80;;
8435;SDS011;4255;48.730;9.156;2023-01-24T07:48:10;42.70;;;21.02;;
8435;SDS011;4255;48.730;9.156;2023-01-24T07:50:36;41.60;;;21.83;;
8435;SDS011;4255;48.730;9.156;2023-01-24T07:53:01;40.13;;;22.40;;
8435;SDS011;4255;48.730;9.156;2023-01-24T07:55:27;39.73;;;23.57;;
8435;SDS011;4255;48.730;9.156;2023-01-24T07:57:59;38.17;;;18.40;;
8435;SDS011;4255;48.730;9.156;2023-01-24T08:00:26;40.45;;;20.52;;
8435;SDS011;4255;48.730;9.156;2023-01-24T08:02:52;45.80;;;22.97;;
8435;SDS011;4255;48.730;9.156;2023-01-24T08:05:17;51.30;;;25.33;;
8435;SDS011;4255;48.730;9.156;2023-01-24T08:07:43;39.17;;;20.63;;
8435;SDS011;4255;48.730;9.156;2023-01-24T08:10:08;39.23;;;22.17;;
8435;SDS011;4255;48.730;9.156;2023-01-24T08:12:34;41.20;;;22.53;;
8435;SDS011;4255;48.730;9.156;2023-01-24T08:15:00;40.00;;;21.83;;
8435;SDS011;4255;48.730;9.156;2023-01-24T08:17:26;48.80;;;23.03;;
8435;SDS011;4255;48.730;9.156;2023-01-24T08:19:51;39.30;;;19.53;;
8435;SDS011;4255;48.730;9.156;2023-01-24T08:22:17;35.90;;;20.00;;
8435;SDS011;4255;48.730;9.156;2023-01-24T08:24:43;39.53;;;20.57;;
8435;SDS011;4255;48.730;9.156;2023-01-24T08:27:09;37.07;;;19.73;;
8435;SDS011;4255;48.730;9.156;2023-01-24T08:29:34;37.22;;;20.92;;
8435;SDS011;4255;48.730;9.156;2023-01-24T08:32:00;35.27;;;19.10;;
8435;SDS011;4255;48.730;9.156;2023-01-24T08:34:26;36.23;;;18.40;;
8435;SDS011;4255;48.730;9.156;2023-01-24T08:36:51;33.80;;;18.50;;
8435;SDS011;4255;48.730;9.156;2023-01-24T08:39:17;33.80;;;21.20;;
8435;SDS011;4255;48.730;9.156;2023-01-24T08:41:43;40.33;;;20.50;;
8435;SDS011;4255;48.730;9.156;2023-01-24T08:44:10;34.17;;;17.85;;
8435;SDS011;4255;48.730;9.156;2023-01-24T08:46:36;33.10;;;18.67;;
8435;SDS011;4255;48.730;9.156;2023-01-24T08:49:02;42.60;;;18.63;;
8435;SDS011;4255;48.730;9.156;2023-01-24T08:51:28;30.25;;;17.58;;
8435;SDS011;4255;48.730;9.156;2023-01-24T08:53:54;30.87;;;16.90;;
8435;SDS011;4255;48.730;9.156;2023-01-24T08:56:20;30.80;;;15.73;;
8435;SDS011;4255;48.730;9.156;2023-01-24T08:58:46;36.33;;;18.50;;
8435;SDS011;4255;48.730;9.156;2023-01-24T09:01:11;37.20;;;18.20;;
8435;SDS011;4255;48.730;9.156;2023-01-24T09:03:37;28.60;;;16.70;;
8435;SDS011;4255;48.730;9.156;2023-01-24T09:06:03;31.17;;;16.88;;
8435;SDS011;4255;48.730;9.156;2023-01-24T09:08:30;36.42;;;19.88;;
8435;SDS011;4255;48.730;9.156;2023-01-24T09:10:59;32.27;;;17.53;;
8435;SDS011;4255;48.730;9.156;2023-01-24T09:13:25;34.05;;;17.90;;
8435;SDS011;4255;48.730;9.156;2023-01-24T09:15:52;30.02;;;17.35;;
8435;SDS011;4255;48.730;9.156;2023-01-24T09:18:18;32.20;;;19.47;;
8435;SDS011;4255;48.730;9.156;2023-01-24T09:20:43;31.77;;;18.43;;
8435;SDS011;4255;48.730;9.156;2023-01-24T09:23:10;31.77;;;15.85;;
8435;SDS011;4255;48.730;9.156;2023-01-24T09:25:39;27.27;;;15.82;;
8435;SDS011;4255;48.730;9.156;2023-01-24T09:28:05;31.63;;;18.02;;
8435;SDS011;4255;48.730;9.156;2023-01-24T09:30:30;28.97;;;16.57;;
8435;SDS011;4255;48.730;9.156;2023-01-24T09:32:56;28.43;;;14.83;;
8435;SDS011;4255;48.730;9.156;2023-01-24T09:35:22;21.07;;;12.70;;
8435;SDS011;4255;48.730;9.156;2023-01-24T09:37:47;21.53;;;14.47;;
8435;SDS011;4255;48.730;9.156;2023-01-24T09:40:18;27.25;;;17.08;;
8435;SDS011;4255;48.730;9.156;2023-01-24T09:46:24;27.77;;;15.15;;
8435;SDS011;4255;48.730;9.156;2023-01-24T09:51:52;20.35;;;13.00;;
8435;SDS011;4255;48.730;9.156;2023-01-24T09:54:27;28.63;;;16.33;;
8435;SDS011;4255;48.730;9.156;2023-01-24T09:57:24;31.27;;;15.48;;
8435;SDS011;4255;48.730;9.156;2023-01-24T09:59:53;27.70;;;14.32;;
8435;SDS011;4255;48.730;9.156;2023-01-24T10:02:25;30.75;;;17.15;;
8435;SDS011;4255;48.730;9.156;2023-01-24T10:04:52;30.08;;;16.80;;
8435;SDS011;4255;48.730;9.156;2023-01-24T10:10:38;33.50;;;16.85;;
8435;SDS011;4255;48.730;9.156;2023-01-24T10:23:44;38.55;;;19.15;;
8435;SDS011;4255;48.730;9.156;2023-01-24T10:28:49;27.95;;;15.68;;
8435;SDS011;4255;48.730;9.156;2023-01-24T10:33:46;28.83;;;17.20;;
8435;SDS011;4255;48.730;9.156;2023-01-24T10:36:17;26.55;;;16.48;;
8435;SDS011;4255;48.730;9.156;2023-01-24T10:38:44;32.10;;;16.23;;
8435;SDS011;4255;48.730;9.156;2023-01-24T10:41:15;29.17;;;16.90;;
8435;SDS011;4255;48.730;9.156;2023-01-24T10:43:41;22.65;;;13.38;;
8435;SDS011;4255;48.730;9.156;2023-01-24T10:46:17;32.05;;;16.33;;
8435;SDS011;4255;48.730;9.156;2023-01-24T10:49:03;26.63;;;15.60;;
8435;SDS011;4255;48.730;9.156;2023-01-24T10:51:36;24.52;;;15.50;;
8435;SDS011;4255;48.730;9.156;2023-01-24T10:54:02;25.40;;;15.00;;
8435;SDS011;4255;48.730;9.156;2023-01-24T10:56:29;26.33;;;15.43;;
8435;SDS011;4255;48.730;9.156;2023-01-24T11:01:38;25.10;;;14.45;;
8435;SDS011;4255;48.730;9.156;2023-01-24T11:04:25;23.27;;;14.27;;
8435;SDS011;4255;48.730;9.156;2023-01-24T11:06:52;26.45;;;13.82;;
8435;SDS011;4255;48.730;9.156;2023-01-24T11:09:19;22.70;;;14.13;;
8435;SDS011;4255;48.730;9.156;2023-01-24T11:11:53;23.83;;;14.10;;
8435;SDS011;4255;48.730;9.156;2023-01-24T11:14:21;29.08;;;13.85;;
8435;SDS011;4255;48.730;9.156;2023-01-24T11:16:50;23.23;;;15.85;;
8435;SDS011;4255;48.730;9.156;2023-01-24T11:21:55;27.67;;;13.25;;
8435;SDS011;4255;48.730;9.156;2023-01-24T11:24:22;23.17;;;13.77;;
8435;SDS011;4255;48.730;9.156;2023-01-24T11:27:07;20.13;;;13.65;;
8435;SDS011;4255;48.730;9.156;2023-01-24T11:29:40;20.20;;;12.88;;
8435;SDS011;4255;48.730;9.156;2023-01-24T11:35:23;20.13;;;13.10;;
8435;SDS011;4255;48.730;9.156;2023-01-24T11:46:35;25.80;;;13.90;;
8435;SDS011;4255;48.730;9.156;2023-01-24T11:57:33;19.95;;;11.77;;
8435;SDS011;4255;48.730;9.156;2023-01-24T12:03:16;29.17;;;13.93;;
8435;SDS011;4255;48.730;9.156;2023-01-24T12:22:42;23.55;;;12.77;;
8435;SDS011;4255;48.730;9.156;2023-01-24T12:28:11;21.20;;;13.13;;
8435;SDS011;4255;48.730;9.156;2023-01-24T12:30:41;20.63;;;12.45;;
8435;SDS011;4255;48.730;9.156;2023-01-24T12:35:56;23.52;;;14.35;;
8435;SDS011;4255;48.730;9.156;2023-01-24T12:38:28;22.67;;;14.27;;
8435;SDS011;4255;48.730;9.156;2023-01-24T12:44:09;20.15;;;13.20;;
8435;SDS011;4255;48.730;9.156;2023-01-24T12:50:00;25.63;;;14.52;;
8435;SDS011;4255;48.730;9.156;2023-01-24T13:00:58;23.05;;;12.73;;
8435;SDS011;4255;48.730;9.156;2023-01-24T13:06:27;36.55;;;14.18;;
8435;SDS011;4255;48.730;9.156;2023-01-24T13:09:15;19.88;;;11.32;;
8435;SDS011;4255;48.730;9.156;2023-01-24T13:11:49;26.13;;;15.07;;
8435;SDS011;4255;48.730;9.156;2023-01-24T13:21:55;14.57;;;10.40;;
8435;SDS011;4255;48.730;9.156;2023-01-24T13:24:57;25.17;;;14.15;;
8435;SDS011;4255;48.730;9.156;2023-01-24T13:27:59;20.92;;;11.98;;
8435;SDS011;4255;48.730;9.156;2023-01-24T13:33:34;21.05;;;11.52;;
8435;SDS011;4255;48.730;9.156;2023-01-24T13:36:06;20.05;;;13.60;;
8435;SDS011;4255;48.730;9.156;2023-01-24T13:38:40;21.23;;;13.18;;
8435;SDS011;4255;48.730;9.156;2023-01-24T13:41:12;15.25;;;9.70;;
8435;SDS011;4255;48.730;9.156;2023-01-24T13:51:53;22.20;;;13.90;;
8435;SDS011;4255;48.730;9.156;2023-01-24T13:54:39;27.25;;;13.25;;
8435;SDS011;4255;48.730;9.156;2023-01-24T13:59:39;20.33;;;12.25;;
8435;SDS011;4255;48.730;9.156;2023-01-24T14:07:54;22.10;;;13.82;;
8435;SDS011;4255;48.730;9.156;2023-01-24T14:10:32;22.88;;;14.13;;
8435;SDS011;4255;48.730;9.156;2023-01-24T14:13:02;22.90;;;15.40;;
8435;SDS011;4255;48.730;9.156;2023-01-24T14:15:36;16.70;;;12.18;;
8435;SDS011;4255;48.730;9.156;2023-01-24T14:21:15;18.98;;;11.50;;
8435;SDS011;4255;48.730;9.156;2023-01-24T14:23:48;21.10;;;14.05;;
8435;SDS011;4255;48.730;9.156;2023-01-24T14:26:17;26.80;;;14.50;;
8435;SDS011;4255;48.730;9.156;2023-01-24T14:28:49;19.73;;;12.10;;
8435;SDS011;4255;48.730;9.156;2023-01-24T14:33:52;16.98;;;10.90;;
8435;SDS011;4255;48.730;9.156;2023-01-24T14:36:29;23.40;;;14.25;;
8435;SDS011;4255;48.730;9.156;2023-01-24T14:41:44;15.35;;;10.80;;
8435;SDS011;4255;48.730;9.156;2023-01-24T14:44:19;22.48;;;14.23;;
8435;SDS011;4255;48.730;9.156;2023-01-24T14:47:01;25.40;;;15.65;;
8435;SDS011;4255;48.730;9.156;2023-01-24T14:52:00;18.17;;;11.35;;
8435;SDS011;4255;48.730;9.156;2023-01-24T14:54:28;21.02;;;13.50;;
8435;SDS011;4255;48.730;9.156;2023-01-24T14:56:53;23.73;;;14.60;;
8435;SDS011;4255;48.730;9.156;2023-01-24T14:59:20;18.25;;;12.15;;
8435;SDS011;4255;48.730;9.156;2023-01-24T15:01:51;22.48;;;14.27;;
8435;SDS011;4255;48.730;9.156;2023-01-24T15:04:29;27.83;;;14.75;;
8435;SDS011;4255;48.730;9.156;2023-01-24T15:07:02;21.98;;;14.07;;
8435;SDS011;4255;48.730;9.156;2023-01-24T15:09:39;22.08;;;11.90;;
8435;SDS011;4255;48.730;9.156;2023-01-24T15:14:39;19.98;;;14.18;;
8435;SDS011;4255;48.730;9.156;2023-01-24T15:17:12;21.15;;;14.23;;
8435;SDS011;4255;48.730;9.156;2023-01-24T15:19:45;20.73;;;14.00;;
8435;SDS011;4255;48.730;9.156;2023-01-24T15:22:19;31.95;;;14.63;;
8435;SDS011;4255;48.730;9.156;2023-01-24T15:24:56;35.58;;;14.32;;
8435;SDS011;4255;48.730;9.156;2023-01-24T15:32:46;22.70;;;14.52;;
8435;SDS011;4255;48.730;9.156;2023-01-24T15:40:30;28.00;;;15.88;;
8435;SDS011;4255;48.730;9.156;2023-01-24T15:42:57;25.77;;;15.73;;
8435;SDS011;4255;48.730;9.156;2023-01-24T15:45:46;22.13;;;13.90;;
8435;SDS011;4255;48.730;9.156;2023-01-24T15:48:19;34.67;;;15.93;;
8435;SDS011;4255;48.730;9.156;2023-01-24T15:50:49;32.55;;;16.17;;
8435;SDS011;4255;48.730;9.156;2023-01-24T15:53:31;28.02;;;14.82;;
8435;SDS011;4255;48.730;9.156;2023-01-24T15:56:05;25.17;;;14.05;;
8435;SDS011;4255;48.730;9.156;2023-01-24T15:58:35;27.80;;;16.15;;
8435;SDS011;4255;48.730;9.156;2023-01-24T16:01:01;30.43;;;17.63;;
8435;SDS011;4255;48.730;9.156;2023-01-24T16:03:28;23.30;;;13.75;;
8435;SDS011;4255;48.730;9.156;2023-01-24T16:05:53;26.50;;;15.60;;
8435;SDS011;4255;48.730;9.156;2023-01-24T16:08:19;29.80;;;16.40;;
8435;SDS011;4255;48.730;9.156;2023-01-24T16:10:45;33.07;;;18.67;;
8435;SDS011;4255;48.730;9.156;2023-01-24T16:13:25;30.02;;;17.40;;
8435;SDS011;4255;48.730;9.156;2023-01-24T16:15:53;26.75;;;16.85;;
8435;SDS011;4255;48.730;9.156;2023-01-24T16:18:19;31.83;;;15.80;;
8435;SDS011;4255;48.730;9.156;2023-01-24T16:20:44;30.37;;;18.00;;
8435;SDS011;4255;48.730;9.156;2023-01-24T16:23:10;27.23;;;16.40;;
8435;SDS011;4255;48.730;9.156;2023-01-24T16:25:36;25.30;;;15.80;;
8435;SDS011;4255;48.730;9.156;2023-01-24T16:28:02;32.05;;;18.88;;
8435;SDS011;4255;48.730;9.156;2023-01-24T16:30:29;30.85;;;17.27;;
8435;SDS011;4255;48.730;9.156;2023-01-24T16:32:55;28.40;;;17.77;;
8435;SDS011;4255;48.730;9.156;2023-01-24T16:35:21;32.55;;;21.40;;
8435;SDS011;4255;48.730;9.156;2023-01-24T16:37:47;23.27;;;14.63;;
8435;SDS011;4255;48.730;9.156;2023-01-24T16:40:14;34.67;;;18.20;;
8435;SDS011;4255;48.730;9.156;2023-01-24T16:42:42;28.30;;;15.13;;
8435;SDS011;4255;48.730;9.156;2023-01-24T16:45:16;30.05;;;18.50;;
8435;SDS011;4255;48.730;9.156;2023-01-24T16:47:44;28.73;;;18.90;;
8435;SDS011;4255;48.730;9.156;2023-01-24T16:50:11;35.83;;;20.02;;
8435;SDS011;4255;48.730;9.156;2023-01-24T16:52:37;37.88;;;19.80;;
8435;SDS011;4255;48.730;9.156;2023-01-24T16:55:03;43.70;;;22.67;;
8435;SDS011;4255;48.730;9.156;2023-01-24T16:57:30;29.95;;;17.55;;
8435;SDS011;4255;48.730;9.156;2023-01-24T16:59:55;39.00;;;20.47;;
8435;SDS011;4255;48.730;9.156;2023-01-24T17:02:21;26.50;;;17.10;;
8435;SDS011;4255;48.730;9.156;2023-01-24T17:04:47;37.60;;;21.43;;
8435;SDS011;4255;48.730;9.156;2023-01-24T17:07:13;38.72;;;22.63;;
8435;SDS011;4255;48.730;9.156;2023-01-24T17:09:39;41.67;;;23.50;;
8435;SDS011;4255;48.730;9.156;2023-01-24T17:12:04;40.17;;;22.87;;
8435;SDS011;4255;48.730;9.156;2023-01-24T17:14:32;38.90;;;21.17;;
8435;SDS011;4255;48.730;9.156;2023-01-24T17:16:58;28.98;;;18.92;;
8435;SDS011;4255;48.730;9.156;2023-01-24T17:19:24;33.33;;;19.20;;
8435;SDS011;4255;48.730;9.156;2023-01-24T17:21:50;40.30;;;22.00;;
8435;SDS011;4255;48.730;9.156;2023-01-24T17:24:15;37.60;;;20.63;;
8435;SDS011;4255;48.730;9.156;2023-01-24T17:26:41;38.75;;;20.02;;
8435;SDS011;4255;48.730;9.156;2023-01-24T17:29:07;35.17;;;18.20;;
8435;SDS011;4255;48.730;9.156;2023-01-24T17:31:33;48.83;;;24.07;;
8435;SDS011;4255;48.730;9.156;2023-01-24T17:33:58;36.63;;;21.10;;
8435;SDS011;4255;48.730;9.156;2023-01-24T17:36:24;35.67;;;20.50;;
8435;SDS011;4255;48.730;9.156;2023-01-24T17:38:53;42.03;;;26.00;;
8435;SDS011;4255;48.730;9.156;2023-01-24T17:41:20;36.53;;;20.48;;